sensor_id;sensor_type;location;lat;lon;timestamp;pressure;altitude;pressure_sealevel;temperature;humidity
45285;BME280;31026;43.780;25.948;2024-02-28T00:00:08;101365.03;;;19.04;62.91
45285;BME280;31026;43.780;25.948;2024-02-28T00:02:39;101366.72;;;19.05;62.83
45285;BME280;31026;43.780;25.948;2024-02-28T00:05:08;101399.63;;;19.07;62.79
45285;BME280;31026;43.780;25.948;2024-02-28T00:07:37;101351.25;;;19.09;62.75
45285;BME280;31026;43.780;25.948;2024-02-28T00:10:05;101357.22;;;19.01;62.79
45285;BME280;31026;43.780;25.948;2024-02-28T00:12:34;101359.28;;;18.98;62.91
45285;BME280;31026;43.780;25.948;2024-02-28T00:15:04;101353.59;;;19.02;62.91
45285;BME280;31026;43.780;25.948;2024-02-28T00:17:35;101363.72;;;19.10;62.66
45285;BME280;31026;43.780;25.948;2024-02-28T00:20:07;101362.97;;;19.08;62.56
45285;BME280;31026;43.780;25.948;2024-02-28T00:22:36;101356.38;;;19.01;62.78
45285;BME280;31026;43.780;25.948;2024-02-28T00:25:05;101375.03;;;19.02;62.58
45285;BME280;31026;43.780;25.948;2024-02-28T00:27:35;101371.09;;;18.95;62.79
45285;BME280;31026;43.780;25.948;2024-02-28T00:30:04;101369.03;;;18.99;62.61
45285;BME280;31026;43.780;25.948;2024-02-28T00:32:33;101360.16;;;18.98;62.80
45285;BME280;31026;43.780;25.948;2024-02-28T00:35:01;101371.94;;;18.96;62.93
45285;BME280;31026;43.780;25.948;2024-02-28T00:37:32;101371.22;;;18.94;62.70
45285;BME280;31026;43.780;25.948;2024-02-28T00:40:01;101373.78;;;18.95;62.76
45285;BME280;31026;43.780;25.948;2024-02-28T00:42:29;101381.84;;;18.95;62.79
45285;BME280;31026;43.780;25.948;2024-02-28T00:44:57;101359.91;;;19.01;62.37
45285;BME280;31026;43.780;25.948;2024-02-28T00:47:26;101366.59;;;18.96;62.62
45285;BME280;31026;43.780;25.948;2024-02-28T00:49:54;101367.59;;;18.95;62.61
45285;BME280;31026;43.780;25.948;2024-02-28T00:52:22;101357.72;;;18.95;62.61
45285;BME280;31026;43.780;25.948;2024-02-28T00:54:53;101357.69;;;18.84;62.64
45285;BME280;31026;43.780;25.948;2024-02-28T00:57:22;101361.50;;;18.93;62.66
45285;BME280;31026;43.780;25.948;2024-02-28T00:59:50;101355.75;;;18.86;62.69
45285;BME280;31026;43.780;25.948;2024-02-28T01:02:19;101351.25;;;18.86;62.72
45285;BME280;31026;43.780;25.948;2024-02-28T01:04:48;101355.03;;;18.95;62.64
45285;BME280;31026;43.780;25.948;2024-02-28T01:07:16;101351.41;;;18.96;62.40
45285;BME280;31026;43.780;25.948;2024-02-28T01:09:44;101356.13;;;18.93;62.55
45285;BME280;31026;43.780;25.948;2024-02-28T01:12:15;101340.53;;;18.86;62.57
45285;BME280;31026;43.780;25.948;2024-02-28T01:14:44;101345.63;;;18.90;62.45
45285;BME280;31026;43.780;25.948;2024-02-28T01:17:12;101341.16;;;18.90;62.52
45285;BME280;31026;43.780;25.948;2024-02-28T01:19:40;101346.84;;;18.85;62.48
45285;BME280;31026;43.780;25.948;2024-02-28T01:22:09;101339.06;;;18.82;62.54
45285;BME280;31026;43.780;25.948;2024-02-28T01:24:37;101357.25;;;18.90;62.54
45285;BME280;31026;43.780;25.948;2024-02-28T01:27:06;101343.56;;;18.93;62.23
45285;BME280;31026;43.780;25.948;2024-02-28T01:29:37;101353.31;;;18.83;62.59
45285;BME280;31026;43.780;25.948;2024-02-28T01:32:06;101359.84;;;18.79;62.50
45285;BME280;31026;43.780;25.948;2024-02-28T01:34:34;101344.53;;;18.81;62.49
45285;BME280;31026;43.780;25.948;2024-02-28T01:37:02;101385.81;;;18.78;62.67
45285;BME280;31026;43.780;25.948;2024-02-28T01:39:31;101344.16;;;18.74;62.66
45285;BME280;31026;43.780;25.948;2024-02-28T01:41:59;101345.72;;;18.77;62.46
45285;BME280;31026;43.780;25.948;2024-02-28T01:44:27;101359.63;;;18.82;62.46
45285;BME280;31026;43.780;25.948;2024-02-28T01:46:58;101363.50;;;18.78;62.34
45285;BME280;31026;43.780;25.948;2024-02-28T01:49:28;101360.69;;;18.68;62.59
45285;BME280;31026;43.780;25.948;2024-02-28T01:51:57;101365.69;;;18.73;62.36
45285;BME280;31026;43.780;25.948;2024-02-28T01:54:25;101375.94;;;18.79;62.41
45285;BME280;31026;43.780;25.948;2024-02-28T01:56:55;101388.59;;;18.77;62.44
45285;BME280;31026;43.780;25.948;2024-02-28T01:59:24;101356.44;;;18.77;62.54
45285;BME280;31026;43.780;25.948;2024-02-28T02:01:54;101375.72;;;18.82;62.52
45285;BME280;31026;43.780;25.948;2024-02-28T02:04:24;101368.78;;;18.79;62.26
45285;BME280;31026;43.780;25.948;2024-02-28T02:06:53;101365.44;;;18.76;62.38
45285;BME280;31026;43.780;25.948;2024-02-28T02:09:23;101376.63;;;18.58;62.93
45285;BME280;31026;43.780;25.948;2024-02-28T02:11:52;101369.44;;;18.70;62.61
45285;BME280;31026;43.780;25.948;2024-02-28T02:14:20;101366.25;;;19.23;61.33
45285;BME280;31026;43.780;25.948;2024-02-28T02:16:48;101356.88;;;19.95;59.48
45285;BME280;31026;43.780;25.948;2024-02-28T02:19:17;101362.09;;;20.29;58.63
45285;BME280;31026;43.780;25.948;2024-02-28T02:21:50;101374.69;;;20.49;58.16
45285;BME280;31026;43.780;25.948;2024-02-28T02:24:23;101373.84;;;20.49;58.11
45285;BME280;31026;43.780;25.948;2024-02-28T02:26:54;101370.31;;;20.48;58.29
45285;BME280;31026;43.780;25.948;2024-02-28T02:29:22;101370.13;;;20.61;57.81
45285;BME280;31026;43.780;25.948;2024-02-28T02:31:52;101362.97;;;20.50;58.06
45285;BME280;31026;43.780;25.948;2024-02-28T02:34:21;101385.78;;;20.56;58.05
45285;BME280;31026;43.780;25.948;2024-02-28T02:36:49;101384.47;;;20.50;58.14
45285;BME280;31026;43.780;25.948;2024-02-28T02:39:17;101386.16;;;20.51;58.23
45285;BME280;31026;43.780;25.948;2024-02-28T02:41:48;101388.22;;;20.59;58.13
45285;BME280;31026;43.780;25.948;2024-02-28T02:44:17;101392.84;;;20.57;58.02
45285;BME280;31026;43.780;25.948;2024-02-28T02:46:45;101378.44;;;20.58;58.17
45285;BME280;31026;43.780;25.948;2024-02-28T02:49:13;101392.34;;;20.63;58.10
45285;BME280;31026;43.780;25.948;2024-02-28T02:51:43;101389.81;;;20.61;58.10
45285;BME280;31026;43.780;25.948;2024-02-28T02:54:12;101392.22;;;20.64;57.98
45285;BME280;31026;43.780;25.948;2024-02-28T02:56:41;101399.75;;;20.71;57.73
45285;BME280;31026;43.780;25.948;2024-02-28T02:59:12;101394.53;;;20.69;57.94
45285;BME280;31026;43.780;25.948;2024-02-28T03:01:40;101396.22;;;20.70;57.66
45285;BME280;31026;43.780;25.948;2024-02-28T03:04:09;101399.50;;;20.74;57.83
45285;BME280;31026;43.780;25.948;2024-02-28T03:06:37;101406.59;;;20.75;57.61
45285;BME280;31026;43.780;25.948;2024-02-28T03:09:05;101388.94;;;20.61;57.91
45285;BME280;31026;43.780;25.948;2024-02-28T03:11:34;101422.47;;;20.78;57.58
45285;BME280;31026;43.780;25.948;2024-02-28T03:14:03;101405.34;;;20.79;57.63
45285;BME280;31026;43.780;25.948;2024-02-28T03:16:34;101416.44;;;20.85;57.51
45285;BME280;31026;43.780;25.948;2024-02-28T03:19:03;101426.78;;;20.90;57.46
45285;BME280;31026;43.780;25.948;2024-02-28T03:21:32;101410.66;;;20.90;57.51
45285;BME280;31026;43.780;25.948;2024-02-28T03:24:00;101415.78;;;20.93;57.31
45285;BME280;31026;43.780;25.948;2024-02-28T03:26:28;101423.69;;;20.95;57.34
45285;BME280;31026;43.780;25.948;2024-02-28T03:28:57;101418.06;;;20.98;57.21
45285;BME280;31026;43.780;25.948;2024-02-28T03:31:25;101419.75;;;20.99;57.27
45285;BME280;31026;43.780;25.948;2024-02-28T03:33:56;101421.72;;;20.97;57.38
45285;BME280;31026;43.780;25.948;2024-02-28T03:36:24;101442.38;;;20.96;57.26
45285;BME280;31026;43.780;25.948;2024-02-28T03:38:53;101437.91;;;21.06;57.14
45285;BME280;31026;43.780;25.948;2024-02-28T03:41:21;101440.88;;;21.03;57.13
45285;BME280;31026;43.780;25.948;2024-02-28T03:43:49;101434.50;;;21.04;57.08
45285;BME280;31026;43.780;25.948;2024-02-28T03:46:18;101445.25;;;21.04;57.07
45285;BME280;31026;43.780;25.948;2024-02-28T03:48:46;101440.59;;;21.06;56.97
45285;BME280;31026;43.780;25.948;2024-02-28T03:51:18;101433.25;;;21.09;56.89
45285;BME280;31026;43.780;25.948;2024-02-28T03:53:46;101443.28;;;21.06;57.20
45285;BME280;31026;43.780;25.948;2024-02-28T03:56:21;101439.63;;;21.08;57.13
45285;BME280;31026;43.780;25.948;2024-02-28T03:58:49;101446.84;;;21.07;57.29
45285;BME280;31026;43.780;25.948;2024-02-28T04:01:18;101449.50;;;20.65;58.03
45285;BME280;31026;43.780;25.948;2024-02-28T04:03:46;101455.38;;;20.26;59.19
45285;BME280;31026;43.780;25.948;2024-02-28T04:06:14;101455.69;;;20.01;59.54
45285;BME280;31026;43.780;25.948;2024-02-28T04:08:45;101462.06;;;19.89;59.74
45285;BME280;31026;43.780;25.948;2024-02-28T04:11:14;101471.00;;;19.78;59.73
45285;BME280;31026;43.780;25.948;2024-02-28T04:13:42;101468.28;;;19.66;60.11
45285;BME280;31026;43.780;25.948;2024-02-28T04:16:10;101473.53;;;19.57;60.44
45285;BME280;31026;43.780;25.948;2024-02-28T04:18:39;101455.75;;;19.56;60.32
45285;BME280;31026;43.780;25.948;2024-02-28T04:21:08;101470.22;;;19.53;60.55
45285;BME280;31026;43.780;25.948;2024-02-28T04:23:36;101465.47;;;19.45;60.66
45285;BME280;31026;43.780;25.948;2024-02-28T04:26:09;101477.28;;;19.43;60.71
45285;BME280;31026;43.780;25.948;2024-02-28T04:28:38;101464.25;;;19.38;60.83
45285;BME280;31026;43.780;25.948;2024-02-28T04:31:06;101489.63;;;19.34;61.00
45285;BME280;31026;43.780;25.948;2024-02-28T04:33:35;101477.66;;;19.27;61.06
45285;BME280;31026;43.780;25.948;2024-02-28T04:36:03;101484.72;;;19.28;61.15
45285;BME280;31026;43.780;25.948;2024-02-28T04:38:33;101477.91;;;19.24;61.13
45285;BME280;31026;43.780;25.948;2024-02-28T04:41:01;101466.16;;;19.14;61.54
45285;BME280;31026;43.780;25.948;2024-02-28T04:43:32;101474.72;;;19.41;61.21
45285;BME280;31026;43.780;25.948;2024-02-28T04:46:01;101491.97;;;19.84;60.21
45285;BME280;31026;43.780;25.948;2024-02-28T04:48:29;101499.03;;;19.96;60.17
45285;BME280;31026;43.780;25.948;2024-02-28T04:50:59;101504.53;;;19.72;60.63
45285;BME280;31026;43.780;25.948;2024-02-28T04:53:28;101492.19;;;19.58;60.88
45285;BME280;31026;43.780;25.948;2024-02-28T04:55:56;101488.53;;;19.48;60.79
45285;BME280;31026;43.780;25.948;2024-02-28T04:58:24;101481.53;;;19.23;61.56
45285;BME280;31026;43.780;25.948;2024-02-28T05:00:55;101497.38;;;19.15;61.79
45285;BME280;31026;43.780;25.948;2024-02-28T05:03:24;101491.38;;;19.11;62.00
45285;BME280;31026;43.780;25.948;2024-02-28T05:05:52;101491.28;;;19.13;61.59
45285;BME280;31026;43.780;25.948;2024-02-28T05:08:21;101488.97;;;19.08;61.70
45285;BME280;31026;43.780;25.948;2024-02-28T05:10:49;101503.00;;;19.23;61.40
45285;BME280;31026;43.780;25.948;2024-02-28T05:13:18;101492.47;;;19.78;60.27
45285;BME280;31026;43.780;25.948;2024-02-28T05:15:47;101494.78;;;19.82;60.45
45285;BME280;31026;43.780;25.948;2024-02-28T05:18:18;101503.78;;;20.04;59.62
45285;BME280;31026;43.780;25.948;2024-02-28T05:20:46;101502.03;;;19.35;59.28
45285;BME280;31026;43.780;25.948;2024-02-28T05:23:15;101509.16;;;19.01;55.48
45285;BME280;31026;43.780;25.948;2024-02-28T05:25:43;101498.06;;;19.05;59.09
45285;BME280;31026;43.780;25.948;2024-02-28T05:28:11;101511.00;;;19.12;59.53
45285;BME280;31026;43.780;25.948;2024-02-28T05:30:40;101508.00;;;19.16;59.27
45285;BME280;31026;43.780;25.948;2024-02-28T05:33:08;101509.78;;;19.04;59.36
45285;BME280;31026;43.780;25.948;2024-02-28T05:35:39;101517.00;;;19.15;59.48
45285;BME280;31026;43.780;25.948;2024-02-28T05:38:07;101523.22;;;19.27;59.40
45285;BME280;31026;43.780;25.948;2024-02-28T05:40:36;101530.84;;;19.44;59.14
45285;BME280;31026;43.780;25.948;2024-02-28T05:43:04;101535.00;;;19.60;58.88
45285;BME280;31026;43.780;25.948;2024-02-28T05:45:33;101532.94;;;19.75;58.57
45285;BME280;31026;43.780;25.948;2024-02-28T05:48:01;101528.44;;;19.86;58.08
45285;BME280;31026;43.780;25.948;2024-02-28T05:50:29;101527.94;;;19.93;57.97
45285;BME280;31026;43.780;25.948;2024-02-28T05:53:00;101537.97;;;20.02;57.73
45285;BME280;31026;43.780;25.948;2024-02-28T05:55:29;101522.56;;;20.04;57.68
45285;BME280;31026;43.780;25.948;2024-02-28T05:57:57;101409.88;;;19.25;57.92
45285;BME280;31026;43.780;25.948;2024-02-28T06:00:26;101541.88;;;19.98;57.93
45285;BME280;31026;43.780;25.948;2024-02-28T06:02:54;101537.34;;;19.98;57.98
45285;BME280;31026;43.780;25.948;2024-02-28T06:05:23;101552.47;;;19.99;57.85
45285;BME280;31026;43.780;25.948;2024-02-28T06:07:51;101551.72;;;19.97;58.13
45285;BME280;31026;43.780;25.948;2024-02-28T06:10:22;101546.97;;;20.01;57.74
45285;BME280;31026;43.780;25.948;2024-02-28T06:12:51;101558.69;;;20.11;57.75
45285;BME280;31026;43.780;25.948;2024-02-28T06:15:19;101555.53;;;20.06;57.98
45285;BME280;31026;43.780;25.948;2024-02-28T06:17:48;101557.81;;;19.99;58.14
45285;BME280;31026;43.780;25.948;2024-02-28T06:20:16;101566.88;;;19.98;58.08
45285;BME280;31026;43.780;25.948;2024-02-28T06:22:44;101575.03;;;19.97;58.27
45285;BME280;31026;43.780;25.948;2024-02-28T06:25:13;101571.88;;;19.92;58.28
45285;BME280;31026;43.780;25.948;2024-02-28T06:27:47;101559.06;;;19.95;58.00
45285;BME280;31026;43.780;25.948;2024-02-28T06:30:15;101553.84;;;19.94;58.17
45285;BME280;31026;43.780;25.948;2024-02-28T06:32:44;101559.19;;;19.94;58.29
45285;BME280;31026;43.780;25.948;2024-02-28T06:35:13;101577.25;;;20.03;58.10
45285;BME280;31026;43.780;25.948;2024-02-28T06:37:41;101563.19;;;19.99;58.03
45285;BME280;31026;43.780;25.948;2024-02-28T06:40:15;101573.09;;;20.10;57.80
45285;BME280;31026;43.780;25.948;2024-02-28T06:42:43;101576.28;;;20.04;57.63
45285;BME280;31026;43.780;25.948;2024-02-28T06:45:14;101581.25;;;20.09;57.16
45285;BME280;31026;43.780;25.948;2024-02-28T06:47:43;101565.66;;;20.14;56.82
45285;BME280;31026;43.780;25.948;2024-02-28T06:50:11;101580.66;;;20.16;57.02
45285;BME280;31026;43.780;25.948;2024-02-28T06:52:41;101579.66;;;20.17;56.89
45285;BME280;31026;43.780;25.948;2024-02-28T06:55:09;101575.53;;;20.02;57.08
45285;BME280;31026;43.780;25.948;2024-02-28T06:57:39;101592.47;;;19.91;57.63
45285;BME280;31026;43.780;25.948;2024-02-28T07:00:09;101591.50;;;19.81;57.90
45285;BME280;31026;43.780;25.948;2024-02-28T07:02:40;101593.56;;;19.77;58.08
45285;BME280;31026;43.780;25.948;2024-02-28T07:05:09;101583.81;;;19.76;57.95
45285;BME280;31026;43.780;25.948;2024-02-28T07:07:37;101589.94;;;19.78;57.88
45285;BME280;31026;43.780;25.948;2024-02-28T07:10:06;101580.31;;;19.52;58.49
45285;BME280;31026;43.780;25.948;2024-02-28T07:12:34;101582.28;;;19.38;58.77
45285;BME280;31026;43.780;25.948;2024-02-28T07:15:03;101580.22;;;19.42;58.87
45285;BME280;31026;43.780;25.948;2024-02-28T07:17:31;101597.16;;;19.42;58.80
45285;BME280;31026;43.780;25.948;2024-02-28T07:20:02;101605.81;;;19.46;58.45
45285;BME280;31026;43.780;25.948;2024-02-28T07:22:31;101578.84;;;19.47;58.73
45285;BME280;31026;43.780;25.948;2024-02-28T07:24:59;101576.44;;;19.44;58.78
45285;BME280;31026;43.780;25.948;2024-02-28T07:27:27;101582.59;;;19.34;58.96
45285;BME280;31026;43.780;25.948;2024-02-28T07:29:55;101587.13;;;19.33;59.10
45285;BME280;31026;43.780;25.948;2024-02-28T07:32:24;101584.81;;;19.28;59.09
45285;BME280;31026;43.780;25.948;2024-02-28T07:34:52;101581.50;;;19.25;59.33
45285;BME280;31026;43.780;25.948;2024-02-28T07:37:23;101575.19;;;19.26;59.32
45285;BME280;31026;43.780;25.948;2024-02-28T07:39:51;101588.09;;;19.32;59.26
45285;BME280;31026;43.780;25.948;2024-02-28T07:42:20;101574.28;;;19.25;59.15
45285;BME280;31026;43.780;25.948;2024-02-28T07:44:48;101568.50;;;19.43;59.06
45285;BME280;31026;43.780;25.948;2024-02-28T07:47:21;101582.09;;;19.64;58.61
45285;BME280;31026;43.780;25.948;2024-02-28T07:49:50;101577.53;;;19.53;58.98
45285;BME280;31026;43.780;25.948;2024-02-28T07:52:18;101561.91;;;19.47;59.02
45285;BME280;31026;43.780;25.948;2024-02-28T07:54:49;101567.66;;;19.42;59.10
45285;BME280;31026;43.780;25.948;2024-02-28T07:57:18;101551.16;;;19.36;59.17
45285;BME280;31026;43.780;25.948;2024-02-28T07:59:46;101594.22;;;19.34;59.35
45285;BME280;31026;43.780;25.948;2024-02-28T08:02:15;101567.03;;;19.39;59.33
45285;BME280;31026;43.780;25.948;2024-02-28T08:04:45;101563.25;;;19.30;59.39
45285;BME280;31026;43.780;25.948;2024-02-28T08:07:15;101563.72;;;19.24;59.70
45285;BME280;31026;43.780;25.948;2024-02-28T08:09:44;101554.47;;;19.28;59.55
45285;BME280;31026;43.780;25.948;2024-02-28T08:12:15;101570.06;;;19.34;59.46
45285;BME280;31026;43.780;25.948;2024-02-28T08:14:43;101566.72;;;19.66;58.73
45285;BME280;31026;43.780;25.948;2024-02-28T08:17:11;101558.94;;;19.85;58.23
45285;BME280;31026;43.780;25.948;2024-02-28T08:19:41;101556.25;;;19.74;58.45
45285;BME280;31026;43.780;25.948;2024-02-28T08:22:09;101549.75;;;19.65;58.69
45285;BME280;31026;43.780;25.948;2024-02-28T08:24:37;101555.19;;;19.41;59.14
45285;BME280;31026;43.780;25.948;2024-02-28T08:27:06;101558.09;;;19.27;59.42
45285;BME280;31026;43.780;25.948;2024-02-28T08:29:37;101553.72;;;19.26;59.47
45285;BME280;31026;43.780;25.948;2024-02-28T08:32:09;101550.06;;;19.27;59.73
45285;BME280;31026;43.780;25.948;2024-02-28T08:34:38;101552.72;;;19.27;59.43
45285;BME280;31026;43.780;25.948;2024-02-28T08:37:07;101563.81;;;19.22;59.62
45285;BME280;31026;43.780;25.948;2024-02-28T08:39:35;101557.16;;;19.39;59.39
45285;BME280;31026;43.780;25.948;2024-02-28T08:42:03;101562.72;;;19.72;58.49
45285;BME280;31026;43.780;25.948;2024-02-28T08:44:32;101565.66;;;19.91;58.21
45285;BME280;31026;43.780;25.948;2024-02-28T08:47:03;101559.69;;;19.76;58.52
45285;BME280;31026;43.780;25.948;2024-02-28T08:49:33;101572.91;;;19.55;58.89
45285;BME280;31026;43.780;25.948;2024-02-28T08:52:01;101573.13;;;19.41;59.43
45285;BME280;31026;43.780;25.948;2024-02-28T08:54:29;101559.81;;;19.28;59.62
45285;BME280;31026;43.780;25.948;2024-02-28T08:56:58;101574.19;;;19.27;59.73
45285;BME280;31026;43.780;25.948;2024-02-28T08:59:26;101565.91;;;19.30;59.54
45285;BME280;31026;43.780;25.948;2024-02-28T09:01:54;101572.97;;;19.31;59.48
45285;BME280;31026;43.780;25.948;2024-02-28T09:04:25;101567.97;;;19.26;59.92
45285;BME280;31026;43.780;25.948;2024-02-28T09:06:54;101569.00;;;19.59;58.95
45285;BME280;31026;43.780;25.948;2024-02-28T09:09:22;101560.66;;;19.86;58.45
45285;BME280;31026;43.780;25.948;2024-02-28T09:11:50;101566.25;;;19.83;58.25
45285;BME280;31026;43.780;25.948;2024-02-28T09:14:19;101576.22;;;19.70;58.83
45285;BME280;31026;43.780;25.948;2024-02-28T09:16:47;101560.63;;;19.64;59.02
45285;BME280;31026;43.780;25.948;2024-02-28T09:19:15;101557.53;;;19.46;59.18
45285;BME280;31026;43.780;25.948;2024-02-28T09:21:46;101563.50;;;19.38;59.53
45285;BME280;31026;43.780;25.948;2024-02-28T09:24:15;101566.06;;;19.40;59.58
45285;BME280;31026;43.780;25.948;2024-02-28T09:26:43;101571.03;;;19.33;59.88
45285;BME280;31026;43.780;25.948;2024-02-28T09:29:12;101593.69;;;19.29;59.78
45285;BME280;31026;43.780;25.948;2024-02-28T09:31:40;101581.75;;;19.22;59.96
45285;BME280;31026;43.780;25.948;2024-02-28T09:34:09;101590.81;;;19.43;59.92
45285;BME280;31026;43.780;25.948;2024-02-28T09:36:40;101580.66;;;19.82;58.62
45285;BME280;31026;43.780;25.948;2024-02-28T09:39:13;101588.94;;;20.13;57.80
45285;BME280;31026;43.780;25.948;2024-02-28T09:41:41;101580.41;;;19.85;58.25
45285;BME280;31026;43.780;25.948;2024-02-28T09:44:10;101586.97;;;19.70;58.93
45285;BME280;31026;43.780;25.948;2024-02-28T09:46:39;101572.06;;;19.55;59.02
45285;BME280;31026;43.780;25.948;2024-02-28T09:49:07;101565.00;;;19.54;59.22
45285;BME280;31026;43.780;25.948;2024-02-28T09:51:37;101563.50;;;19.50;59.09
45285;BME280;31026;43.780;25.948;2024-02-28T09:54:05;101570.84;;;19.59;59.13
45285;BME280;31026;43.780;25.948;2024-02-28T09:56:37;101554.50;;;19.51;59.21
45285;BME280;31026;43.780;25.948;2024-02-28T09:59:05;101550.56;;;19.43;59.50
45285;BME280;31026;43.780;25.948;2024-02-28T10:01:34;101562.09;;;19.68;58.99
45285;BME280;31026;43.780;25.948;2024-02-28T10:04:05;101549.78;;;19.99;58.42
45285;BME280;31026;43.780;25.948;2024-02-28T10:06:35;101557.25;;;19.96;58.30
45285;BME280;31026;43.780;25.948;2024-02-28T10:09:04;101551.13;;;19.71;58.86
45285;BME280;31026;43.780;25.948;2024-02-28T10:11:32;101550.63;;;19.66;59.04
45285;BME280;31026;43.780;25.948;2024-02-28T10:14:03;101560.22;;;19.57;59.23
45285;BME280;31026;43.780;25.948;2024-02-28T10:16:32;101547.91;;;19.55;59.31
45285;BME280;31026;43.780;25.948;2024-02-28T10:19:00;101541.06;;;19.51;59.27
45285;BME280;31026;43.780;25.948;2024-02-28T10:21:30;101550.09;;;19.50;59.43
45285;BME280;31026;43.780;25.948;2024-02-28T10:23:58;101526.91;;;19.37;59.74
45285;BME280;31026;43.780;25.948;2024-02-28T10:26:26;101534.38;;;19.67;59.18
45285;BME280;31026;43.780;25.948;2024-02-28T10:28:59;101531.97;;;19.98;58.46
45285;BME280;31026;43.780;25.948;2024-02-28T10:31:34;101520.13;;;20.01;58.26
45285;BME280;31026;43.780;25.948;2024-02-28T10:34:03;101523.53;;;19.69;59.02
45285;BME280;31026;43.780;25.948;2024-02-28T10:36:32;101509.63;;;19.64;59.31
45285;BME280;31026;43.780;25.948;2024-02-28T10:39:00;101515.72;;;19.66;59.31
45285;BME280;31026;43.780;25.948;2024-02-28T10:41:29;101493.53;;;19.64;59.42
45285;BME280;31026;43.780;25.948;2024-02-28T10:43:57;101500.13;;;19.60;59.25
45285;BME280;31026;43.780;25.948;2024-02-28T10:46:27;101509.25;;;19.46;59.74
45285;BME280;31026;43.780;25.948;2024-02-28T10:48:58;101504.00;;;19.44;59.24
45285;BME280;31026;43.780;25.948;2024-02-28T10:51:26;101492.78;;;19.39;59.01
45285;BME280;31026;43.780;25.948;2024-02-28T10:53:59;101495.19;;;19.31;59.23
45285;BME280;31026;43.780;25.948;2024-02-28T10:56:30;101493.88;;;19.59;58.49
45285;BME280;31026;43.780;25.948;2024-02-28T10:58:59;101485.00;;;19.93;57.38
45285;BME280;31026;43.780;25.948;2024-02-28T11:01:27;101476.53;;;20.63;55.69
45285;BME280;31026;43.780;25.948;2024-02-28T11:03:58;101465.53;;;20.88;55.27
45285;BME280;31026;43.780;25.948;2024-02-28T11:06:24;101470.38;;;20.94;55.32
45285;BME280;31026;43.780;25.948;2024-02-28T11:08:53;101469.78;;;20.90;54.59
45285;BME280;31026;43.780;25.948;2024-02-28T11:11:21;101461.00;;;20.88;54.86
45285;BME280;31026;43.780;25.948;2024-02-28T11:13:53;101468.22;;;20.88;55.10
45285;BME280;31026;43.780;25.948;2024-02-28T11:16:25;101454.44;;;21.02;54.92
45285;BME280;31026;43.780;25.948;2024-02-28T11:18:53;101464.41;;;21.11;54.71
45285;BME280;31026;43.780;25.948;2024-02-28T11:21:28;101466.69;;;21.16;54.65
45285;BME280;31026;43.780;25.948;2024-02-28T11:24:00;101449.53;;;21.07;54.86
45285;BME280;31026;43.780;25.948;2024-02-28T11:26:29;101436.47;;;21.02;55.05
45285;BME280;31026;43.780;25.948;2024-02-28T11:28:57;101438.56;;;21.20;54.92
45285;BME280;31026;43.780;25.948;2024-02-28T11:31:25;101452.19;;;21.28;54.63
45285;BME280;31026;43.780;25.948;2024-02-28T11:33:53;101449.91;;;21.23;54.77
45285;BME280;31026;43.780;25.948;2024-02-28T11:36:22;101442.25;;;21.19;55.08
45285;BME280;31026;43.780;25.948;2024-02-28T11:38:53;101440.94;;;21.13;55.13
45285;BME280;31026;43.780;25.948;2024-02-28T11:41:25;101443.53;;;21.24;54.90
45285;BME280;31026;43.780;25.948;2024-02-28T11:43:51;101421.34;;;21.32;54.81
45285;BME280;31026;43.780;25.948;2024-02-28T11:46:19;101435.78;;;21.31;54.96
45285;BME280;31026;43.780;25.948;2024-02-28T11:48:49;101429.28;;;21.34;54.82
45285;BME280;31026;43.780;25.948;2024-02-28T11:51:17;101431.66;;;21.27;55.02
45285;BME280;31026;43.780;25.948;2024-02-28T11:53:46;101422.34;;;21.31;55.02
45285;BME280;31026;43.780;25.948;2024-02-28T11:56:17;101417.84;;;21.41;54.69
45285;BME280;31026;43.780;25.948;2024-02-28T11:58:49;101402.13;;;21.37;54.66
45285;BME280;31026;43.780;25.948;2024-02-28T12:01:18;101399.56;;;21.35;54.99
45285;BME280;31026;43.780;25.948;2024-02-28T12:03:46;101409.97;;;21.29;55.25
45285;BME280;31026;43.780;25.948;2024-02-28T12:06:14;101418.59;;;21.43;54.94
45285;BME280;31026;43.780;25.948;2024-02-28T12:08:43;101396.53;;;21.50;54.84
45285;BME280;31026;43.780;25.948;2024-02-28T12:11:13;101391.97;;;21.50;54.82
45285;BME280;31026;43.780;25.948;2024-02-28T12:13:44;101402.44;;;21.43;54.82
45285;BME280;31026;43.780;25.948;2024-02-28T12:16:12;101391.91;;;21.40;55.05
45285;BME280;31026;43.780;25.948;2024-02-28T12:18:41;101397.78;;;21.45;54.94
45285;BME280;31026;43.780;25.948;2024-02-28T12:21:09;101400.94;;;21.60;54.66
45285;BME280;31026;43.780;25.948;2024-02-28T12:23:37;101384.34;;;21.55;54.78
45285;BME280;31026;43.780;25.948;2024-02-28T12:26:06;101388.91;;;21.55;54.77
45285;BME280;31026;43.780;25.948;2024-02-28T12:28:34;101393.81;;;21.50;54.86
45285;BME280;31026;43.780;25.948;2024-02-28T12:31:05;101391.28;;;21.58;54.97
45285;BME280;31026;43.780;25.948;2024-02-28T12:33:36;101385.50;;;21.62;54.83
45285;BME280;31026;43.780;25.948;2024-02-28T12:36:05;101364.13;;;21.61;54.73
45285;BME280;31026;43.780;25.948;2024-02-28T12:38:33;101384.06;;;21.58;54.83
45285;BME280;31026;43.780;25.948;2024-02-28T12:41:02;101379.66;;;21.48;55.15
45285;BME280;31026;43.780;25.948;2024-02-28T12:43:31;101378.38;;;21.52;55.16
45285;BME280;31026;43.780;25.948;2024-02-28T12:46:00;101378.56;;;21.60;54.87
45285;BME280;31026;43.780;25.948;2024-02-28T12:48:31;101384.97;;;21.69;54.75